createdAt,value
2024-05-09T01:19:39.514Z,78818.47
2024-05-09T01:38:38.071Z,78819.38
2024-05-09T01:53:25.240Z,78836.66
2024-05-09T02:08:29.287Z,78841.72
2024-05-09T02:11:00.628Z,78853.78
2024-05-09T02:24:44.506Z,78877.31
2024-05-09T02:27:16.330Z,78869.28
2024-05-09T02:29:48.161Z,78878.00
2024-05-09T02:44:03.438Z,78888.56
2024-05-09T02:46:36.898Z,78890.16
2024-05-09T02:49:07.570Z,78889.38
2024-05-09T02:51:37.875Z,78890.13
2024-05-09T02:54:09.452Z,78894.22
2024-05-09T02:56:40.443Z,78880.50
2024-05-09T02:59:11.057Z,78895.28
2024-05-09T03:01:41.356Z,78889.25
2024-05-09T03:04:12.042Z,78889.56
2024-05-09T03:06:45.631Z,78883.69
2024-05-09T03:09:16.097Z,78893.13
2024-05-09T03:11:47.581Z,78894.34
2024-05-09T03:14:21.755Z,78896.75
2024-05-09T03:16:52.551Z,78888.13
2024-05-09T03:19:23.258Z,78887.38
2024-05-09T03:21:53.947Z,78891.63
2024-05-09T03:24:24.519Z,78892.41
2024-05-09T03:26:54.874Z,78888.09
2024-05-09T03:29:25.626Z,78895.75
2024-05-09T03:31:57.166Z,78895.22
2024-05-09T03:34:27.697Z,78897.22
2024-05-09T03:36:58.400Z,78892.44
2024-05-09T03:39:28.926Z,78888.00
2024-05-09T03:41:59.525Z,78879.47
2024-05-09T03:44:30.122Z,78890.44
2024-05-09T03:47:00.776Z,78872.59
2024-05-09T03:49:31.396Z,78897.66
2024-05-09T03:52:06.668Z,78886.94
2024-05-09T03:54:46.685Z,78887.28
2024-05-09T03:57:17.272Z,78901.56
2024-05-09T03:59:47.921Z,78882.81
2024-05-09T04:02:18.556Z,78899.69
2024-05-09T04:04:49.411Z,78894.63
2024-05-09T04:07:19.960Z,78898.72
2024-05-09T04:09:50.156Z,78898.38
2024-05-09T04:12:21.390Z,78892.59
2024-05-09T04:14:52.103Z,78893.56
2024-05-09T04:17:22.440Z,78892.31
2024-05-09T04:19:53.168Z,78899.28
2024-05-09T04:22:23.763Z,78898.84
2024-05-09T04:24:54.796Z,78908.09
2024-05-09T04:27:25.404Z,78903.41
2024-05-09T04:29:56.076Z,78909.25
2024-05-09T04:32:26.722Z,78904.38
2024-05-09T04:34:57.496Z,78901.47
2024-05-09T04:37:28.560Z,78912.66
2024-05-09T04:39:59.730Z,78910.38
2024-05-09T04:42:30.580Z,78917.69
2024-05-09T04:45:00.987Z,78919.91
2024-05-09T04:47:32.628Z,78911.16
2024-05-09T04:50:03.601Z,78918.31
2024-05-09T04:52:33.978Z,78921.69
2024-05-09T04:55:04.558Z,78917.88
2024-05-09T04:57:35.007Z,78915.88
2024-05-09T05:00:09.437Z,78909.56
2024-05-09T05:02:45.236Z,78924.63
2024-05-09T05:05:15.931Z,78922.50
2024-05-09T05:07:46.701Z,78921.06
2024-05-09T05:10:25.105Z,78921.00
2024-05-09T05:13:19.312Z,78918.78
2024-05-09T05:15:53.323Z,78932.22
2024-05-09T05:18:25.702Z,78931.69
2024-05-09T05:20:58.062Z,78934.41
2024-05-09T05:23:28.678Z,78927.53
2024-05-09T05:25:59.105Z,78921.81
2024-05-09T05:28:29.697Z,78915.69
2024-05-09T05:31:00.361Z,78914.00
2024-05-09T05:33:31.854Z,78924.97
2024-05-09T05:36:02.694Z,78919.59
2024-05-09T05:38:33.322Z,78913.72
2024-05-09T05:41:04.007Z,78915.88
2024-05-09T05:43:34.637Z,78924.28
2024-05-09T05:46:05.440Z,78918.22
2024-05-09T05:48:36.196Z,78920.47
2024-05-09T05:51:08.019Z,78931.53
2024-05-09T05:53:38.766Z,78918.44
2024-05-09T05:56:10.143Z,78908.31
2024-05-09T05:58:40.912Z,78925.47
2024-05-09T06:01:11.526Z,78927.19
2024-05-09T06:03:42.477Z,78920.22
2024-05-09T06:06:15.586Z,78918.78
2024-05-09T06:08:47.513Z,78900.75
2024-05-09T06:11:18.316Z,78908.53
2024-05-09T06:13:49.116Z,78909.22
2024-05-09T06:16:19.482Z,78892.59
2024-05-09T06:18:50.127Z,78908.03
2024-05-09T06:21:21.166Z,78905.00
2024-05-09T06:23:52.071Z,78927.06
2024-05-09T06:26:23.786Z,78913.22
2024-05-09T06:28:54.175Z,78899.53
2024-05-09T06:31:24.582Z,78915.91
2024-05-09T06:33:55.110Z,78910.81
2024-05-09T06:36:25.579Z,78906.63
2024-05-09T06:38:55.959Z,78916.00
2024-05-09T06:41:29.369Z,78901.66
2024-05-09T06:44:02.484Z,78902.66
2024-05-09T06:46:33.745Z,78893.59
2024-05-09T06:49:09.698Z,78896.69
2024-05-09T06:51:40.682Z,78894.84
2024-05-09T06:54:11.849Z,78889.22
2024-05-09T06:56:42.380Z,78899.19
2024-05-09T06:59:13.112Z,78878.09
2024-05-09T07:01:45.122Z,78897.84
2024-05-09T07:04:16.298Z,78893.47
2024-05-09T07:06:47.051Z,78886.72
2024-05-09T07:09:17.699Z,78879.69
2024-05-09T07:11:48.328Z,78890.56
2024-05-09T07:14:20.050Z,78881.59
2024-05-09T07:16:50.992Z,78867.78
2024-05-09T07:19:21.804Z,78889.31
2024-05-09T07:21:53.437Z,78891.78
2024-05-09T07:24:23.929Z,78889.50
2024-05-09T07:26:54.767Z,78870.63
2024-05-09T07:29:25.574Z,78886.25
2024-05-09T07:31:56.750Z,78884.38
2024-05-09T07:34:27.464Z,78858.97
2024-05-09T07:36:58.537Z,78883.88
2024-05-09T07:39:29.659Z,78884.31
2024-05-09T07:42:00.158Z,78891.66
2024-05-09T07:44:32.148Z,78881.31
2024-05-09T07:54:43.026Z,78884.31
2024-05-09T07:57:13.865Z,78887.22
2024-05-09T07:59:44.438Z,78857.50
2024-05-09T08:02:14.933Z,78890.28
2024-05-09T08:04:45.665Z,78884.91
2024-05-09T08:07:16.229Z,78871.56
2024-05-09T08:09:48.209Z,78884.94
2024-05-09T08:12:18.716Z,78875.84
2024-05-09T08:14:50.353Z,78882.69
2024-05-09T08:17:20.892Z,78872.13
2024-05-09T08:19:51.606Z,78868.72
2024-05-09T08:22:22.219Z,78879.50
2024-05-09T08:24:52.744Z,78883.63
2024-05-09T08:27:23.170Z,78876.66
2024-05-09T08:29:53.699Z,78879.13
2024-05-09T08:32:25.025Z,78879.19
2024-05-09T08:34:55.957Z,78865.38
2024-05-09T08:37:30.966Z,78864.31
2024-05-09T08:40:08.465Z,78871.00
2024-05-09T08:42:46.613Z,78846.31
2024-05-09T08:45:18.442Z,78868.25
2024-05-09T08:47:51.915Z,78871.50
2024-05-09T08:50:32.183Z,78856.13
2024-05-09T08:53:09.545Z,78854.34
2024-05-09T08:55:42.650Z,78859.31
2024-05-09T08:58:23.569Z,78862.66
2024-05-09T09:00:54.764Z,78840.59
2024-05-09T09:03:29.913Z,78852.94
2024-05-09T09:06:04.473Z,78848.50
2024-05-09T09:08:35.240Z,78847.38
2024-05-09T09:11:06.646Z,78842.78
2024-05-09T09:13:37.245Z,78838.28
2024-05-09T09:16:08.716Z,78832.78
2024-05-09T09:18:39.652Z,78829.56
2024-05-09T09:21:13.218Z,78838.91
2024-05-09T09:23:43.755Z,78828.72
2024-05-09T09:26:18.614Z,78821.97
2024-05-09T09:28:49.838Z,78826.50
2024-05-09T09:31:21.817Z,78806.44
2024-05-09T09:33:54.118Z,78807.91
2024-05-09T09:36:24.746Z,78827.31
2024-05-09T09:38:57.415Z,78824.25
2024-05-09T09:41:32.277Z,78808.72
2024-05-09T09:44:05.049Z,78806.69
2024-05-09T09:46:36.467Z,78798.72
2024-05-09T09:49:08.547Z,78808.69
2024-05-09T09:51:45.135Z,78786.97
2024-05-09T09:54:16.500Z,78778.63
2024-05-09T09:56:50.186Z,78800.34
2024-05-09T09:59:20.934Z,78790.19
2024-05-09T10:01:51.659Z,78798.59
2024-05-09T10:04:22.570Z,78792.13
2024-05-09T10:07:01.088Z,78781.78
2024-05-09T10:09:32.102Z,78779.88
2024-05-09T10:12:12.528Z,78784.00
2024-05-09T10:14:52.555Z,78786.31
2024-05-09T10:17:23.236Z,78781.41
2024-05-09T10:20:11.858Z,78774.06
2024-05-09T10:22:52.176Z,78766.09
2024-05-09T10:25:23.044Z,78772.66
2024-05-09T10:28:00.196Z,78764.28
2024-05-09T10:30:35.918Z,78757.88
2024-05-09T10:33:13.196Z,78771.84
2024-05-09T10:35:53.890Z,78770.56
2024-05-09T10:38:31.568Z,78759.44
2024-05-09T10:41:03.180Z,78777.03
2024-05-09T10:43:33.828Z,78746.97
2024-05-09T10:46:04.403Z,78766.41
2024-05-09T10:48:35.157Z,78758.63
2024-05-09T10:51:06.044Z,78768.97
2024-05-09T10:53:44.354Z,78764.91
2024-05-09T10:56:17.986Z,78745.56
2024-05-09T10:58:48.645Z,78741.59
2024-05-09T11:01:19.346Z,78739.03
2024-05-09T11:03:54.501Z,78746.56
2024-05-09T11:06:25.644Z,78745.63
2024-05-09T11:08:56.587Z,78742.72
2024-05-09T11:11:28.256Z,78742.91
2024-05-09T11:13:58.940Z,78727.72
2024-05-09T11:16:29.521Z,78721.28
2024-05-09T11:19:01.296Z,78712.41
2024-05-09T11:21:31.984Z,78731.28
2024-05-09T11:24:03.169Z,78727.19
2024-05-09T11:26:37.016Z,78715.44
2024-05-09T11:29:07.795Z,78721.72
2024-05-09T11:31:50.320Z,78735.56
2024-05-09T11:34:20.892Z,78735.25
2024-05-09T11:36:51.558Z,78726.03
2024-05-09T11:39:22.226Z,78723.19
2024-05-09T11:41:52.905Z,78717.19
2024-05-09T11:44:23.493Z,78694.81
2024-05-09T11:46:54.138Z,78720.00
2024-05-09T11:49:26.840Z,78722.78
2024-05-09T11:51:58.203Z,78720.75
2024-05-09T11:54:28.963Z,78713.69
2024-05-09T11:56:59.615Z,78703.59
2024-05-09T11:59:29.920Z,78707.72
2024-05-09T12:02:00.453Z,78710.63
2024-05-09T12:04:31.436Z,78700.75
2024-05-09T12:07:03.596Z,78713.06
2024-05-09T12:09:35.984Z,78711.44
2024-05-09T12:12:08.773Z,78708.38
2024-05-09T12:14:40.037Z,78708.16
2024-05-09T12:17:10.586Z,78707.06
2024-05-09T12:19:42.333Z,78707.56
2024-05-09T12:22:12.867Z,78705.84
2024-05-09T12:24:43.407Z,78709.19
2024-05-09T12:27:14.211Z,78712.63
2024-05-09T12:29:45.177Z,78708.88
2024-05-09T12:32:15.883Z,78718.22
2024-05-09T12:34:46.567Z,78707.78
2024-05-09T12:37:17.427Z,78709.88
2024-05-09T12:39:48.488Z,78682.50
2024-05-09T12:42:26.745Z,78700.03
2024-05-09T12:44:58.606Z,78711.13
2024-05-09T12:47:29.283Z,78712.19
2024-05-09T12:50:00.185Z,78712.94
2024-05-09T12:52:30.744Z,78705.34
2024-05-09T12:55:01.321Z,78693.91
2024-05-09T12:57:33.382Z,78715.22
2024-05-09T13:00:04.194Z,78700.38
2024-05-09T13:02:35.651Z,78701.16
2024-05-09T13:05:06.413Z,78703.94
2024-05-09T13:07:37.074Z,78711.53
2024-05-09T13:10:13.899Z,78718.78
2024-05-09T13:12:49.101Z,78716.09
2024-05-09T13:15:20.281Z,78703.34
2024-05-09T13:17:51.103Z,78695.31
2024-05-09T13:20:28.728Z,78736.50
2024-05-09T13:23:07.516Z,78723.94
2024-05-09T13:25:39.354Z,78707.88
2024-05-09T13:28:10.288Z,78737.63
2024-05-09T13:30:42.224Z,78740.78
2024-05-09T13:33:14.473Z,78741.75
2024-05-09T13:35:49.643Z,78732.50
2024-05-09T13:38:22.590Z,78747.06
2024-05-09T13:40:53.495Z,78739.75
2024-05-09T13:43:25.047Z,78746.88
2024-05-09T13:45:58.162Z,78755.34
2024-05-09T13:48:30.187Z,78761.94
2024-05-09T13:51:00.977Z,78762.06
2024-05-09T13:53:34.395Z,78765.00
2024-05-09T13:56:06.317Z,78750.28
2024-05-09T13:58:38.300Z,78771.25
2024-05-09T14:01:09.170Z,78768.47
2024-05-09T14:03:39.968Z,78788.22
2024-05-09T14:06:13.072Z,78770.78
2024-05-09T14:08:44.230Z,78764.00
2024-05-09T14:11:14.918Z,78748.25
2024-05-09T14:13:46.395Z,78773.78
2024-05-09T14:16:16.973Z,78794.66
2024-05-09T14:18:47.940Z,78780.31
2024-05-09T14:21:19.217Z,78771.09
2024-05-09T14:23:49.847Z,78781.91
2024-05-09T14:26:21.101Z,78793.06
2024-05-09T14:28:51.698Z,78797.81
2024-05-09T14:31:23.434Z,78777.69
2024-05-09T14:33:55.612Z,78806.50
2024-05-09T14:36:26.656Z,78788.97
2024-05-09T14:38:57.919Z,78803.19
2024-05-09T14:41:28.706Z,78809.38
2024-05-09T14:43:59.219Z,78799.69
2024-05-09T14:46:30.805Z,78800.97
2024-05-09T14:49:03.664Z,78815.16
2024-05-09T14:51:34.798Z,78803.16
2024-05-09T14:54:06.388Z,78824.97
2024-05-09T14:56:37.384Z,78829.19
2024-05-09T14:59:09.647Z,78832.38
2024-05-09T15:01:41.485Z,78824.91
2024-05-09T15:04:14.065Z,78840.88
2024-05-09T15:06:45.109Z,78848.16
2024-05-09T15:09:15.948Z,78840.19
2024-05-09T15:11:47.803Z,78857.50
2024-05-09T15:14:18.333Z,78836.63
2024-05-09T15:16:50.554Z,78858.66
2024-05-09T15:19:21.679Z,78828.44
2024-05-09T15:21:52.561Z,78861.22
2024-05-09T15:24:24.463Z,78853.38
2024-05-09T15:26:55.063Z,78851.69
2024-05-09T15:29:27.945Z,78859.25
2024-05-09T15:31:59.706Z,78852.31
2024-05-09T15:34:31.720Z,78854.25
2024-05-09T15:37:03.274Z,78857.69
2024-05-09T15:39:39.624Z,78860.22
2024-05-09T15:42:10.276Z,78847.72
2024-05-09T15:44:41.935Z,78856.75
2024-05-09T15:47:13.804Z,78865.88
2024-05-09T15:49:44.548Z,78855.19
2024-05-09T15:52:17.186Z,78864.00
2024-05-09T15:54:48.449Z,78873.38
2024-05-09T15:57:20.163Z,78849.44
2024-05-09T15:59:50.923Z,78857.53
2024-05-09T16:02:21.903Z,78858.66
2024-05-09T16:04:53.390Z,78860.94
2024-05-09T16:07:24.347Z,78854.31
2024-05-09T16:09:55.358Z,78846.72
2024-05-09T16:12:27.203Z,78854.81
2024-05-09T16:14:57.498Z,78863.47
2024-05-09T16:17:28.869Z,78833.59
2024-05-09T16:20:00.459Z,78826.06
2024-05-09T16:22:31.275Z,78839.56
2024-05-09T16:25:02.528Z,78857.19
2024-05-09T16:27:33.491Z,78831.72
2024-05-09T16:30:09.310Z,78849.50
2024-05-09T16:32:46.152Z,78834.09
2024-05-09T16:35:17.737Z,78832.09
2024-05-09T16:37:49.383Z,78832.00
2024-05-09T16:40:29.301Z,78843.09
2024-05-09T16:43:09.059Z,78837.53
2024-05-09T16:45:41.859Z,78843.06
2024-05-09T16:48:14.155Z,78838.25
2024-05-09T16:50:45.330Z,78839.88
2024-05-09T16:53:15.933Z,78836.69
2024-05-09T16:55:46.586Z,78837.91
2024-05-09T16:58:19.501Z,78830.13
2024-05-09T17:00:50.220Z,78818.41
2024-05-09T17:03:22.994Z,78833.25
2024-05-09T17:05:53.732Z,78828.66
2024-05-09T17:08:24.585Z,78832.50
2024-05-09T17:10:55.413Z,78838.72
2024-05-09T17:13:29.742Z,78821.28
2024-05-09T17:16:00.499Z,78831.75
2024-05-09T17:18:31.182Z,78825.59
2024-05-09T17:21:01.865Z,78815.25
2024-05-09T17:23:35.044Z,78829.59
2024-05-09T17:26:06.209Z,78825.56
2024-05-09T17:28:37.965Z,78814.69
2024-05-09T17:31:09.775Z,78830.00
2024-05-09T17:33:40.658Z,78828.00
2024-05-09T17:36:13.104Z,78800.53
2024-05-09T17:38:43.964Z,78827.03
2024-05-09T17:41:14.534Z,78819.53
2024-05-09T17:43:45.292Z,78818.72
2024-05-09T17:46:16.082Z,78818.25
2024-05-09T17:48:46.913Z,78802.22
2024-05-09T17:51:17.614Z,78810.78
2024-05-09T17:53:49.558Z,78809.16
2024-05-09T17:56:20.342Z,78821.66
2024-05-09T17:58:51.009Z,78826.09
2024-05-09T18:01:21.440Z,78820.66
2024-05-09T18:03:52.137Z,78816.00
2024-05-09T18:06:22.565Z,78822.34
2024-05-09T18:08:53.139Z,78825.31
2024-05-09T18:11:23.745Z,78826.59
2024-05-09T18:13:55.966Z,78813.28
2024-05-09T18:16:26.943Z,78825.13
2024-05-09T18:18:57.895Z,78823.34
2024-05-09T18:21:29.172Z,78829.72
2024-05-09T18:24:01.072Z,78833.13
2024-05-09T18:26:31.519Z,78830.53
2024-05-09T18:29:02.253Z,78823.13
2024-05-09T18:31:32.585Z,78818.06
2024-05-09T18:34:03.425Z,78826.47
2024-05-09T18:36:33.821Z,78823.84
2024-05-09T18:39:04.914Z,78812.97
2024-05-09T18:41:35.334Z,78831.38
2024-05-09T18:44:06.426Z,78830.72
2024-05-09T18:46:36.994Z,78828.25
2024-05-09T18:49:07.891Z,78840.97
2024-05-09T18:51:38.281Z,78836.50
2024-05-09T18:54:08.763Z,78829.56
2024-05-09T18:56:39.990Z,78811.50
2024-05-09T18:59:10.327Z,78826.56
2024-05-09T19:01:43.804Z,78819.59
2024-05-09T19:04:14.890Z,78819.94
2024-05-09T19:06:45.680Z,78815.47
2024-05-09T19:09:16.332Z,78831.47
2024-05-09T19:11:47.078Z,78831.94
